Lenox, Ohio
Current Conditions -  °F | °C
As of 11:53 PM on Friday 24 Oct 2014 (Local Time) from KHZY Reporting Station
Broken Clouds Broken Clouds  
Wind Chill: 50°   Ceiling: 4900
Heat Index: 50°   Visibility: 10mi
Dew Point: 43°   Wind: 0mph
Humidity: 77%   Direction: NA
Pressure: 29.99"   Gusts: NA
Location:  41.7187°N, 80.7409°W
Report Text: KHZY 250353Z AUTO 00000KT 10SM BKN049 10/06 A2999 RMK AO2 SLP156 T01000061
Loading
Personal Weather Stations






























Interactive Weather Map
Tropical Storm Tracking
New forecast layout! Learn more

10-Day Weather Forecast

Advertisements
Track Severe Weather on mobile